createdAt,value
2019-04-10T00:00:39.227Z,15.80
2019-04-10T00:05:44.439Z,13.40
2019-04-10T00:10:48.682Z,16.50
2019-04-10T00:15:52.908Z,12.80
2019-04-10T00:20:56.974Z,12.80
2019-04-10T00:26:01.474Z,13.00
2019-04-10T00:31:05.759Z,15.00
2019-04-10T00:36:10.047Z,16.80
2019-04-10T00:41:14.238Z,13.25
2019-04-10T00:46:18.282Z,14.00
2019-04-10T00:51:23.423Z,14.60
2019-04-10T00:56:28.363Z,13.75
2019-04-10T01:01:32.512Z,14.20
2019-04-10T01:06:36.572Z,15.00
2019-04-10T01:11:41.401Z,13.80
2019-04-10T01:16:45.631Z,13.50
2019-04-10T01:21:50.697Z,15.75
2019-04-10T01:26:55.832Z,16.20
2019-04-10T01:31:59.939Z,14.75
2019-04-10T01:37:04.775Z,10.00
2019-04-10T01:42:08.983Z,10.40
2019-04-10T01:47:13.087Z,10.40
2019-04-10T01:52:17.300Z,13.25
2019-04-10T01:57:21.962Z,15.00
2019-04-10T02:02:31.624Z,13.20
2019-04-10T02:07:35.709Z,10.25
2019-04-10T02:12:40.941Z,12.20
2019-04-10T02:17:45.149Z,11.60
2019-04-10T02:22:49.915Z,13.00
2019-04-10T02:27:54.391Z,11.60
2019-04-10T02:32:59.774Z,12.50
2019-04-10T02:38:24.447Z,10.75
2019-04-10T02:43:11.773Z,10.50
2019-04-10T02:48:16.949Z,12.00
2019-04-10T02:53:21.689Z,12.60
2019-04-10T02:58:26.531Z,11.40
2019-04-10T03:03:30.694Z,10.80
2019-04-10T03:08:51.558Z,13.50
2019-04-10T03:13:40.765Z,12.20
2019-04-10T03:18:45.183Z,10.60
2019-04-10T03:23:49.608Z,11.40
2019-04-10T03:28:53.710Z,12.50
2019-04-10T03:34:20.772Z,11.50
2019-04-10T03:39:23.751Z,9.00
2019-04-10T03:44:27.787Z,9.50
2019-04-10T03:49:32.286Z,11.75
2019-04-10T03:54:37.425Z,13.25
2019-04-10T03:59:42.114Z,12.00
2019-04-10T04:04:48.043Z,11.25
2019-04-10T04:09:52.203Z,10.20
2019-04-10T04:14:56.920Z,14.25
2019-04-10T04:20:01.051Z,10.00
2019-04-10T04:25:06.817Z,10.00
2019-04-10T04:30:12.601Z,14.17
2019-04-10T04:35:17.565Z,9.60
2019-04-10T04:40:21.825Z,10.00
2019-04-10T04:45:25.807Z,10.20
2019-04-10T04:50:29.798Z,8.25
2019-04-10T04:55:33.806Z,10.75
2019-04-10T05:00:37.854Z,10.25
2019-04-10T05:05:41.861Z,12.20
2019-04-10T05:10:46.045Z,9.75
2019-04-10T05:15:51.305Z,12.50
2019-04-10T05:20:56.657Z,8.00
2019-04-10T05:26:00.912Z,10.00
2019-04-10T05:31:04.918Z,8.25
2019-04-10T05:36:09.018Z,9.40
2019-04-10T05:41:13.380Z,6.25
2019-04-10T05:46:18.606Z,12.50
2019-04-10T05:51:23.337Z,9.80
2019-04-10T05:56:27.955Z,10.25
2019-04-10T06:01:36.727Z,11.60
2019-04-10T06:06:38.718Z,8.50
2019-04-10T06:11:44.508Z,11.50
2019-04-10T06:16:48.988Z,9.75
2019-04-10T06:21:53.044Z,12.00
2019-04-10T06:26:57.124Z,12.80
2019-04-10T06:32:01.229Z,9.20
2019-04-10T06:37:06.142Z,9.20
2019-04-10T06:42:10.316Z,8.00
2019-04-10T06:47:14.406Z,10.00
2019-04-10T06:52:18.634Z,29.80
2019-04-10T06:57:22.945Z,35.25
2019-04-10T07:02:30.539Z,42.60
2019-04-10T07:07:45.489Z,39.80
2019-04-10T07:12:39.731Z,38.25
2019-04-10T07:17:45.019Z,35.20
2019-04-10T07:22:49.728Z,38.25
2019-04-10T07:27:54.352Z,38.80
2019-04-10T07:32:59.272Z,43.00
2019-04-10T07:38:03.491Z,30.20
2019-04-10T07:43:07.493Z,28.25
2019-04-10T07:48:12.769Z,28.00
2019-04-10T07:53:16.993Z,26.25
2019-04-10T07:58:21.485Z,30.20
2019-04-10T08:03:25.833Z,28.00
2019-04-10T08:08:30.067Z,27.75
2019-04-10T08:13:34.155Z,31.00
2019-04-10T08:18:39.354Z,27.00
2019-04-10T08:23:44.600Z,30.80
2019-04-10T08:28:49.710Z,28.25
2019-04-10T08:33:54.777Z,32.25
2019-04-10T08:38:59.243Z,34.60
2019-04-10T08:44:04.438Z,32.80
2019-04-10T08:49:08.828Z,33.50
2019-04-10T08:54:12.845Z,27.40
2019-04-10T08:59:17.314Z,31.00
2019-04-10T09:04:21.322Z,30.25
2019-04-10T09:09:25.722Z,27.80
2019-04-10T09:14:29.880Z,26.50
2019-04-10T09:19:34.054Z,31.25
2019-04-10T09:24:38.415Z,30.00
2019-04-10T09:29:42.710Z,23.00
2019-04-10T09:34:48.120Z,24.75
2019-04-10T09:39:53.442Z,26.75
2019-04-10T09:44:57.975Z,27.25
2019-04-10T09:50:02.295Z,23.25
2019-04-10T09:55:07.628Z,18.80
2019-04-10T10:00:12.063Z,22.00
2019-04-10T10:05:16.203Z,20.40
2019-04-10T10:10:20.650Z,21.80
2019-04-10T10:15:25.299Z,21.60
2019-04-10T10:20:30.697Z,23.40
2019-04-10T10:25:35.398Z,19.80
2019-04-10T10:30:39.750Z,14.40
2019-04-10T10:35:43.910Z,23.75
2019-04-10T10:40:48.754Z,20.00
2019-04-10T10:45:53.428Z,16.75
2019-04-10T10:50:58.282Z,13.00
2019-04-10T10:56:02.446Z,17.75
2019-04-10T11:01:07.419Z,15.60
2019-04-10T11:06:12.857Z,18.00
2019-04-10T11:11:17.184Z,13.00
2019-04-10T11:16:21.294Z,15.00
2019-04-10T11:21:25.376Z,16.20
2019-04-10T11:26:30.288Z,17.00
2019-04-10T11:31:35.658Z,16.75
2019-04-10T11:36:40.107Z,17.25
2019-04-10T11:41:45.788Z,12.40
2019-04-10T11:46:52.676Z,16.20
2019-04-10T11:51:59.587Z,13.25
2019-04-10T11:57:03.262Z,14.80
2019-04-10T12:02:08.818Z,13.60
2019-04-10T12:07:49.141Z,9.25
2019-04-10T12:12:19.528Z,15.40
2019-04-10T12:17:23.659Z,13.00
2019-04-10T12:22:27.807Z,12.75
2019-04-10T12:27:31.924Z,14.20
2019-04-10T12:32:36.718Z,16.00
2019-04-10T12:37:41.251Z,12.80
2019-04-10T12:42:46.163Z,11.00
2019-04-10T12:47:50.328Z,11.00
2019-04-10T12:52:54.732Z,11.20
2019-04-10T12:58:06.660Z,9.75
2019-04-10T13:03:05.110Z,11.20
2019-04-10T13:08:17.872Z,11.80
2019-04-10T13:13:15.201Z,9.40
2019-04-10T13:18:20.445Z,12.50
2019-04-10T13:23:24.830Z,10.60
2019-04-10T13:28:29.722Z,10.50
2019-04-10T13:33:33.965Z,10.25
2019-04-10T13:38:38.384Z,11.20
2019-04-10T13:43:42.584Z,8.60
2019-04-10T13:48:47.259Z,10.25
2019-04-10T13:53:52.332Z,10.50
2019-04-10T13:58:56.399Z,9.50
2019-04-10T14:04:00.845Z,8.75
2019-04-10T14:09:28.104Z,7.00
2019-04-10T14:14:16.191Z,10.20
2019-04-10T14:19:21.401Z,9.20
2019-04-10T14:24:26.314Z,7.00
2019-04-10T14:29:32.264Z,11.00
2019-04-10T14:34:36.641Z,9.00
2019-04-10T14:39:41.151Z,9.25
2019-04-10T14:44:46.466Z,9.20
2019-04-10T14:49:52.567Z,8.50
2019-04-10T14:54:56.531Z,7.50
2019-04-10T15:00:00.700Z,8.60
2019-04-10T15:05:05.819Z,7.75
2019-04-10T15:10:10.234Z,9.00
2019-04-10T15:15:14.380Z,7.00
2019-04-10T15:20:18.370Z,6.80
2019-04-10T15:25:23.001Z,5.00
2019-04-10T15:30:27.146Z,8.80
2019-04-10T15:35:31.228Z,7.25
2019-04-10T15:40:36.453Z,6.40
2019-04-10T15:45:40.892Z,7.25
2019-04-10T15:50:45.092Z,7.00
2019-04-10T15:55:49.578Z,19.60
2019-04-10T16:00:53.869Z,47.00
2019-04-10T16:05:57.903Z,31.50
2019-04-10T16:11:19.775Z,28.50
2019-04-10T16:16:48.967Z,24.50
2019-04-10T16:21:54.269Z,20.80
2019-04-10T16:26:58.433Z,23.80
2019-04-10T16:32:02.605Z,21.80
2019-04-10T16:37:06.856Z,19.00
2019-04-10T16:42:11.061Z,21.75
2019-04-10T16:47:15.249Z,14.80
2019-04-10T16:52:19.317Z,15.40
2019-04-10T16:57:23.361Z,15.25
2019-04-10T17:02:28.387Z,13.00
2019-04-10T17:07:32.803Z,14.75
2019-04-10T17:12:37.802Z,13.00
2019-04-10T17:17:42.358Z,15.40
2019-04-10T17:22:49.197Z,13.00
2019-04-10T17:27:52.239Z,13.80
2019-04-10T17:32:56.394Z,12.00
2019-04-10T17:38:00.453Z,9.60
2019-04-10T17:43:05.673Z,12.20
2019-04-10T17:48:09.772Z,10.00
2019-04-10T17:53:15.202Z,12.25
2019-04-10T17:58:19.698Z,9.00
2019-04-10T18:03:25.369Z,13.00
2019-04-10T18:08:30.171Z,12.80
2019-04-10T18:13:34.294Z,12.60
2019-04-10T18:18:38.380Z,9.40
2019-04-10T18:23:42.401Z,12.60
2019-04-10T18:28:46.657Z,11.00
2019-04-10T18:33:53.014Z,11.20
2019-04-10T18:38:57.717Z,12.60
2019-04-10T18:44:01.903Z,14.50
2019-04-10T18:49:07.209Z,11.20
2019-04-10T18:54:12.420Z,10.80
2019-04-10T18:59:26.832Z,11.75
2019-04-10T19:04:36.250Z,12.00
2019-04-10T19:09:41.006Z,12.00
2019-04-10T19:14:45.293Z,12.20
2019-04-10T19:19:50.791Z,11.20
2019-04-10T19:24:54.972Z,10.75
2019-04-10T19:29:59.343Z,10.50
2019-04-10T19:35:04.681Z,13.80
2019-04-10T19:40:09.339Z,10.60
2019-04-10T19:45:13.881Z,8.50
2019-04-10T19:50:17.945Z,8.80
2019-04-10T19:55:22.048Z,11.80
2019-04-10T20:00:31.193Z,10.40
2019-04-10T20:05:37.247Z,10.25
2019-04-10T20:10:41.643Z,8.00
2019-04-10T20:15:46.840Z,8.75
2019-04-10T20:20:51.396Z,8.25
2019-04-10T20:25:56.748Z,8.00
2019-04-10T20:31:01.339Z,8.00
2019-04-10T20:36:06.744Z,8.60
2019-04-10T20:41:11.062Z,10.00
2019-04-10T20:46:15.177Z,10.40
2019-04-10T20:51:19.213Z,7.50
2019-04-10T20:56:24.270Z,8.00
2019-04-10T21:01:28.804Z,7.60
2019-04-10T21:06:33.867Z,10.20
2019-04-10T21:11:38.061Z,8.00
2019-04-10T21:16:42.235Z,8.75
2019-04-10T21:21:46.868Z,7.50
2019-04-10T21:26:51.021Z,6.80
2019-04-10T21:32:05.535Z,6.20
2019-04-10T21:37:10.218Z,7.00
2019-04-10T21:42:21.090Z,7.00
2019-04-10T21:47:20.215Z,6.60
2019-04-10T21:52:25.368Z,6.20
2019-04-10T21:57:29.985Z,6.00
2019-04-10T22:02:34.398Z,5.60
2019-04-10T22:08:07.128Z,6.75
2019-04-10T22:13:11.675Z,6.00
2019-04-10T22:18:14.935Z,5.50
2019-04-10T22:23:20.190Z,5.50
2019-04-10T22:28:25.337Z,7.25
2019-04-10T22:33:29.977Z,6.20
2019-04-10T22:38:34.336Z,5.60
2019-04-10T22:43:38.714Z,5.00
2019-04-10T22:48:43.693Z,6.00
2019-04-10T22:53:48.063Z,5.75
2019-04-10T22:58:53.227Z,6.00
2019-04-10T23:03:57.643Z,7.25
2019-04-10T23:09:02.129Z,5.25
2019-04-10T23:14:06.808Z,6.00
2019-04-10T23:19:11.961Z,4.00
2019-04-10T23:24:16.328Z,8.00
2019-04-10T23:29:20.459Z,5.40
2019-04-10T23:40:16.898Z,6.00
2019-04-10T23:45:21.807Z,4.80
2019-04-10T23:50:26.184Z,4.40
2019-04-10T23:55:30.279Z,5.00
